createdAt,value
2022-08-29T00:00:59.442Z,1.80
2022-08-29T00:03:26.778Z,1.47
2022-08-29T00:05:53.579Z,1.60
2022-08-29T00:08:21.710Z,1.58
2022-08-29T00:10:48.783Z,1.50
2022-08-29T00:13:16.319Z,1.23
2022-08-29T00:15:45.034Z,1.50
2022-08-29T00:18:14.075Z,1.60
2022-08-29T00:20:42.128Z,1.30
2022-08-29T00:23:10.029Z,1.33
2022-08-29T00:25:37.779Z,1.65
2022-08-29T00:28:05.323Z,1.73
2022-08-29T00:30:33.013Z,1.38
2022-08-29T00:32:59.819Z,1.58
2022-08-29T00:35:31.323Z,1.55
2022-08-29T00:37:59.259Z,1.70
2022-08-29T00:40:31.021Z,1.60
2022-08-29T00:42:58.482Z,1.60
2022-08-29T00:45:25.868Z,1.45
2022-08-29T00:47:57.323Z,1.60
2022-08-29T00:50:35.906Z,1.40
2022-08-29T00:53:06.603Z,1.45
2022-08-29T00:55:37.774Z,1.50
2022-08-29T00:58:14.344Z,1.70
2022-08-29T01:00:43.324Z,1.45
2022-08-29T01:03:10.327Z,1.40
2022-08-29T01:05:37.550Z,1.63
2022-08-29T01:08:06.141Z,1.63
2022-08-29T01:10:53.980Z,1.65
2022-08-29T01:13:26.025Z,1.70
2022-08-29T01:15:54.924Z,1.38
2022-08-29T01:18:23.233Z,1.52
2022-08-29T01:21:18.805Z,1.65
2022-08-29T01:24:10.415Z,1.50
2022-08-29T01:26:37.448Z,1.70
2022-08-29T01:29:04.806Z,1.70
2022-08-29T01:31:58.165Z,1.73
2022-08-29T01:34:27.579Z,1.88
2022-08-29T01:36:58.218Z,1.55
2022-08-29T01:39:29.134Z,1.55
2022-08-29T01:41:58.121Z,1.50
2022-08-29T01:44:26.286Z,1.83
2022-08-29T01:47:00.423Z,1.85
2022-08-29T01:49:29.529Z,1.80
2022-08-29T01:51:56.400Z,1.83
2022-08-29T01:54:23.753Z,1.52
2022-08-29T01:56:52.746Z,1.63
2022-08-29T01:59:24.339Z,1.88
2022-08-29T02:01:59.644Z,1.73
2022-08-29T02:04:27.362Z,1.60
2022-08-29T02:06:56.199Z,1.60
2022-08-29T02:09:24.812Z,1.67
2022-08-29T02:11:52.671Z,1.58
2022-08-29T02:14:20.018Z,2.00
2022-08-29T02:16:48.105Z,1.75
2022-08-29T02:19:15.533Z,1.73
2022-08-29T02:21:42.917Z,1.92
2022-08-29T02:24:24.511Z,1.83
2022-08-29T02:26:53.559Z,1.50
2022-08-29T02:29:20.404Z,1.77
2022-08-29T02:31:47.891Z,1.77
2022-08-29T02:34:17.587Z,2.05
2022-08-29T02:36:44.803Z,2.17
2022-08-29T02:39:15.094Z,1.80
2022-08-29T02:41:44.347Z,2.05
2022-08-29T02:44:14.363Z,2.10
2022-08-29T02:46:41.261Z,2.00
2022-08-29T02:49:08.110Z,2.20
2022-08-29T02:51:35.584Z,1.95
2022-08-29T02:54:02.846Z,2.17
2022-08-29T02:56:30.444Z,1.90
2022-08-29T02:58:58.227Z,1.90
2022-08-29T03:01:26.160Z,1.98
2022-08-29T03:03:53.711Z,2.17
2022-08-29T03:06:21.686Z,2.40
2022-08-29T03:08:49.218Z,1.88
2022-08-29T03:11:17.316Z,2.22
2022-08-29T03:16:12.911Z,1.92
2022-08-29T03:18:39.991Z,2.10
2022-08-29T03:21:18.088Z,1.70
2022-08-29T03:23:44.854Z,2.13
2022-08-29T03:26:11.984Z,2.00
2022-08-29T03:28:38.936Z,2.00
2022-08-29T03:31:06.429Z,1.75
2022-08-29T03:33:33.512Z,2.08
2022-08-29T03:36:00.332Z,1.85
2022-08-29T03:38:27.237Z,2.03
2022-08-29T03:40:55.672Z,2.13
2022-08-29T03:43:25.104Z,1.75
2022-08-29T03:45:56.017Z,1.92
2022-08-29T03:48:22.987Z,2.03
2022-08-29T03:50:53.222Z,2.00
2022-08-29T03:53:23.091Z,1.83
2022-08-29T03:55:49.974Z,1.87
2022-08-29T03:58:17.026Z,1.80
2022-08-29T04:00:46.789Z,1.70
2022-08-29T04:03:13.742Z,1.80
2022-08-29T04:05:40.932Z,1.60
2022-08-29T04:08:08.548Z,1.73
2022-08-29T04:10:38.194Z,1.65
2022-08-29T04:13:07.089Z,1.88
2022-08-29T04:15:35.383Z,1.70
2022-08-29T04:18:04.592Z,1.80
2022-08-29T04:20:37.957Z,2.10
2022-08-29T04:23:07.553Z,1.75
2022-08-29T04:25:37.745Z,2.00
2022-08-29T04:28:10.953Z,2.00
2022-08-29T04:30:39.517Z,1.80
2022-08-29T04:33:06.660Z,1.88
2022-08-29T04:35:34.946Z,2.08
2022-08-29T04:38:01.725Z,2.00
2022-08-29T04:40:28.591Z,2.10
2022-08-29T04:42:55.477Z,2.33
2022-08-29T04:45:23.150Z,2.40
2022-08-29T04:47:50.693Z,1.80
2022-08-29T04:50:21.989Z,1.73
2022-08-29T04:52:50.162Z,2.20
2022-08-29T04:57:51.777Z,3.60
2022-08-29T05:00:24.088Z,3.60
2022-08-29T05:02:51.252Z,3.20
2022-08-29T05:05:18.670Z,2.95
2022-08-29T05:07:46.529Z,3.25
2022-08-29T05:10:19.747Z,2.50
2022-08-29T05:12:48.272Z,2.33
2022-08-29T05:15:16.440Z,2.30
2022-08-29T05:20:13.443Z,2.05
2022-08-29T05:22:42.244Z,2.30
2022-08-29T05:25:14.415Z,2.10
2022-08-29T05:27:45.103Z,2.28
2022-08-29T05:30:12.046Z,2.15
2022-08-29T05:32:39.200Z,2.10
2022-08-29T05:35:06.640Z,2.15
2022-08-29T05:37:33.788Z,1.98
2022-08-29T05:40:00.717Z,1.88
2022-08-29T05:42:28.232Z,2.10
2022-08-29T05:44:55.186Z,2.22
2022-08-29T05:47:22.638Z,2.47
2022-08-29T06:28:57.633Z,3.28
2022-08-29T06:31:29.143Z,2.50
2022-08-29T06:33:59.207Z,2.45
2022-08-29T06:36:28.066Z,2.75
2022-08-29T06:39:00.091Z,2.53
2022-08-29T06:41:28.236Z,2.13
2022-08-29T06:46:37.442Z,2.42
2022-08-29T06:49:08.529Z,2.22
2022-08-29T06:51:37.713Z,2.40
2022-08-29T06:54:07.336Z,2.95
2022-08-29T06:56:36.708Z,2.83
2022-08-29T06:59:04.906Z,2.75
2022-08-29T07:01:31.842Z,2.42
2022-08-29T07:04:00.715Z,2.83
2022-08-29T07:06:27.975Z,2.53
2022-08-29T07:08:55.494Z,2.73
2022-08-29T07:13:50.377Z,2.63
2022-08-29T07:16:18.815Z,2.78
2022-08-29T07:18:48.926Z,2.70
2022-08-29T07:21:20.964Z,2.17
2022-08-29T07:23:49.693Z,2.58
2022-08-29T07:26:32.555Z,2.30
2022-08-29T07:29:04.768Z,2.40
2022-08-29T07:31:32.287Z,2.22
2022-08-29T07:34:02.093Z,2.33
2022-08-29T07:36:31.168Z,2.30
2022-08-29T07:41:25.709Z,2.10
2022-08-29T07:43:53.450Z,2.90
2022-08-29T07:46:21.726Z,2.90
2022-08-29T07:48:49.187Z,2.70
2022-08-29T07:51:19.048Z,2.35
2022-08-29T07:53:49.725Z,2.30
2022-08-29T07:56:39.551Z,2.00
2022-08-29T07:59:07.187Z,2.00
2022-08-29T08:01:35.446Z,2.63
2022-08-29T08:04:02.917Z,2.30
2022-08-29T08:06:32.006Z,2.20
2022-08-29T08:09:01.743Z,2.10
2022-08-29T08:11:28.928Z,2.03
2022-08-29T08:13:57.598Z,1.90
2022-08-29T08:16:27.048Z,2.28
2022-08-29T08:33:14.865Z,2.28
2022-08-29T08:35:42.213Z,2.03
2022-08-29T08:38:10.200Z,2.35
2022-08-29T08:40:50.117Z,2.38
2022-08-29T08:43:26.987Z,1.85
2022-08-29T08:45:57.011Z,2.10
2022-08-29T08:48:34.025Z,1.92
2022-08-29T08:51:15.346Z,2.60
2022-08-29T08:53:46.791Z,2.40
2022-08-29T08:56:26.376Z,2.72
2022-08-29T08:59:20.337Z,2.40
2022-08-29T09:02:13.770Z,2.30
2022-08-29T09:04:58.377Z,2.03
2022-08-29T09:07:54.696Z,2.28
2022-08-29T09:10:50.616Z,2.58
2022-08-29T09:13:23.723Z,2.42
2022-08-29T09:15:58.866Z,2.47
2022-08-29T09:18:43.759Z,2.10
2022-08-29T09:21:41.748Z,2.65
2022-08-29T09:24:18.399Z,2.33
2022-08-29T09:26:45.271Z,2.53
2022-08-29T09:29:14.021Z,2.30
2022-08-29T09:31:41.224Z,2.30
2022-08-29T09:34:13.172Z,2.60
2022-08-29T09:36:55.962Z,2.78
2022-08-29T09:39:29.164Z,2.50
2022-08-29T09:42:19.284Z,2.72
2022-08-29T09:44:58.254Z,2.55
2022-08-29T09:47:30.994Z,2.95
2022-08-29T09:50:14.802Z,2.88
2022-08-29T09:52:55.639Z,2.63
2022-08-29T09:55:35.055Z,2.05
2022-08-29T09:58:30.490Z,2.28
2022-08-29T10:01:09.812Z,2.40
2022-08-29T10:03:44.204Z,2.70
2022-08-29T10:06:19.907Z,2.78
2022-08-29T10:09:08.375Z,2.60
2022-08-29T10:11:35.166Z,2.25
2022-08-29T10:14:14.586Z,2.47
2022-08-29T10:17:35.389Z,2.45
2022-08-29T10:20:05.724Z,2.70
2022-08-29T10:22:37.653Z,2.10
2022-08-29T10:25:13.596Z,2.20
2022-08-29T10:28:07.143Z,2.40
2022-08-29T10:31:01.577Z,2.33
2022-08-29T10:33:34.869Z,2.53
2022-08-29T10:36:12.255Z,2.50
2022-08-29T10:38:55.339Z,2.47
2022-08-29T10:41:27.993Z,2.40
2022-08-29T10:44:33.550Z,1.90
2022-08-29T10:47:13.277Z,2.25
2022-08-29T10:50:04.844Z,2.17
2022-08-29T10:52:51.438Z,2.13
2022-08-29T10:55:33.958Z,2.33
2022-08-29T10:58:07.380Z,2.08
2022-08-29T11:00:48.671Z,2.00
2022-08-29T11:03:26.711Z,2.33
2022-08-29T11:06:13.100Z,2.17
2022-08-29T11:09:06.046Z,2.30
2022-08-29T11:11:36.435Z,2.38
2022-08-29T11:14:08.774Z,2.10
2022-08-29T11:16:48.542Z,2.40
2022-08-29T11:19:27.285Z,2.20
2022-08-29T11:22:34.570Z,2.15
2022-08-29T11:25:10.531Z,2.53
2022-08-29T11:27:57.490Z,2.40
2022-08-29T11:30:40.296Z,2.15
2022-08-29T11:33:45.554Z,2.00
2022-08-29T11:36:45.193Z,2.03
2022-08-29T11:41:56.417Z,2.30
2022-08-29T11:44:37.445Z,2.20
2022-08-29T11:48:03.089Z,1.98
2022-08-29T11:50:39.055Z,2.38
2022-08-29T11:53:37.643Z,1.95
2022-08-29T11:56:14.393Z,2.40
2022-08-29T11:58:56.171Z,1.88
2022-08-29T12:01:25.783Z,1.70
2022-08-29T12:03:55.307Z,2.42
2022-08-29T12:07:02.893Z,2.30
2022-08-29T12:09:45.548Z,2.25
2022-08-29T12:12:47.446Z,2.53
2022-08-29T12:15:51.505Z,2.08
2022-08-29T12:18:18.333Z,2.35
2022-08-29T12:20:58.656Z,2.30
2022-08-29T12:23:28.826Z,2.00
2022-08-29T12:26:22.852Z,2.00
2022-08-29T12:29:02.348Z,2.00
2022-08-29T12:32:08.507Z,2.20
2022-08-29T12:34:49.111Z,2.00
2022-08-29T12:37:25.527Z,2.20
2022-08-29T12:40:13.764Z,2.00
2022-08-29T12:43:06.506Z,2.20
2022-08-29T12:45:37.722Z,2.15
2022-08-29T12:48:22.538Z,1.88
2022-08-29T12:50:50.547Z,2.00
2022-08-29T12:55:56.413Z,2.20
2022-08-29T12:58:42.536Z,1.80
2022-08-29T13:01:49.959Z,2.17
2022-08-29T13:04:36.983Z,2.10
2022-08-29T13:07:15.819Z,2.00
2022-08-29T13:09:48.986Z,1.88
2022-08-29T13:12:26.616Z,2.00
2022-08-29T13:14:58.341Z,2.33
2022-08-29T13:17:31.017Z,2.10
2022-08-29T13:20:43.439Z,2.50
2022-08-29T13:23:16.432Z,2.53
2022-08-29T13:26:00.033Z,2.13
2022-08-29T13:28:38.912Z,2.35
2022-08-29T13:31:34.128Z,2.72
2022-08-29T13:34:11.843Z,2.42
2022-08-29T13:37:01.011Z,2.28
2022-08-29T13:39:41.361Z,2.17
2022-08-29T13:42:26.378Z,2.22
2022-08-29T13:45:01.084Z,1.98
2022-08-29T13:47:39.019Z,2.03
2022-08-29T13:50:09.970Z,2.25
2022-08-29T13:52:39.194Z,2.28
2022-08-29T13:55:08.114Z,2.13
2022-08-29T13:57:35.905Z,2.10
2022-08-29T14:00:05.472Z,2.30
2022-08-29T14:02:34.624Z,2.05
2022-08-29T14:05:01.652Z,2.10
2022-08-29T14:07:31.418Z,2.13
2022-08-29T14:10:01.224Z,2.40
2022-08-29T14:12:33.320Z,3.65
2022-08-29T14:15:09.735Z,2.50
2022-08-29T14:17:42.459Z,2.60
2022-08-29T14:20:12.437Z,2.10
2022-08-29T14:22:45.703Z,2.28
2022-08-29T14:25:16.742Z,2.42
2022-08-29T14:27:44.458Z,2.25
2022-08-29T14:30:13.464Z,2.50
2022-08-29T14:32:41.516Z,2.40
2022-08-29T14:35:26.384Z,2.90
2022-08-29T14:37:58.721Z,2.85
2022-08-29T14:40:29.092Z,2.45
2022-08-29T14:42:58.391Z,2.53
2022-08-29T14:45:26.336Z,2.53
2022-08-29T14:50:22.939Z,2.30
2022-08-29T14:52:54.890Z,2.10
2022-08-29T14:55:22.564Z,2.08
2022-08-29T14:57:52.159Z,1.90
2022-08-29T15:00:26.996Z,2.17
2022-08-29T15:02:54.471Z,2.70
2022-08-29T15:05:24.016Z,2.00
2022-08-29T15:07:50.964Z,2.22
2022-08-29T15:10:25.272Z,2.42
2022-08-29T15:12:54.085Z,2.30
2022-08-29T15:15:29.046Z,2.15
2022-08-29T15:17:58.272Z,2.35
2022-08-29T15:20:46.165Z,3.83
2022-08-29T15:25:45.007Z,2.40
2022-08-29T15:30:47.467Z,2.00
2022-08-29T15:33:15.053Z,2.10
2022-08-29T15:35:42.182Z,2.20
2022-08-29T15:38:09.340Z,2.17
2022-08-29T15:40:39.249Z,2.58
2022-08-29T15:43:10.250Z,2.30
2022-08-29T15:45:39.472Z,2.38
2022-08-29T15:48:11.884Z,2.58
2022-08-29T15:50:42.315Z,2.80
2022-08-29T15:55:37.593Z,2.95
2022-08-29T15:58:05.914Z,2.65
2022-08-29T16:00:33.444Z,2.35
2022-08-29T16:03:03.602Z,2.30
2022-08-29T16:05:34.100Z,2.70
2022-08-29T16:08:02.247Z,2.40
2022-08-29T16:10:32.843Z,2.60
2022-08-29T16:13:00.104Z,2.60
2022-08-29T16:15:34.373Z,2.50
2022-08-29T16:18:02.320Z,2.33
2022-08-29T16:22:56.898Z,2.40
2022-08-29T16:25:27.420Z,2.35
2022-08-29T16:27:57.501Z,2.10
2022-08-29T16:30:25.337Z,2.30
2022-08-29T16:32:53.700Z,2.47
2022-08-29T16:35:22.772Z,2.22
2022-08-29T16:37:53.260Z,2.30
2022-08-29T16:40:31.606Z,2.30
2022-08-29T16:43:00.690Z,2.30
2022-08-29T16:45:31.211Z,2.20
2022-08-29T16:47:58.216Z,2.20
2022-08-29T16:50:26.398Z,2.75
2022-08-29T16:52:55.075Z,3.00
2022-08-29T16:55:22.611Z,2.70
2022-08-29T16:58:11.197Z,2.10
2022-08-29T17:00:39.684Z,2.50
2022-08-29T17:03:06.603Z,2.30
2022-08-29T17:05:36.213Z,2.25
2022-08-29T17:08:03.586Z,2.03
2022-08-29T17:10:30.487Z,2.20
2022-08-29T17:12:58.276Z,2.30
2022-08-29T17:17:52.728Z,2.33
2022-08-29T17:20:20.655Z,1.92
2022-08-29T17:25:14.540Z,2.10
2022-08-29T17:27:55.614Z,3.17
2022-08-29T17:30:31.110Z,2.20
2022-08-29T17:32:59.021Z,2.40
2022-08-29T17:37:55.061Z,2.35
2022-08-29T17:40:22.482Z,2.40
2022-08-29T17:42:56.962Z,2.28
2022-08-29T17:45:31.875Z,2.30
2022-08-29T17:48:00.130Z,2.20
2022-08-29T17:50:27.293Z,2.53
2022-08-29T17:52:54.405Z,2.27
2022-08-29T17:55:23.734Z,2.10
2022-08-29T17:58:01.113Z,2.33
2022-08-29T18:00:29.555Z,2.60
2022-08-29T18:02:57.863Z,2.03
2022-08-29T18:05:26.716Z,2.35
2022-08-29T18:07:56.300Z,2.40
2022-08-29T18:10:27.514Z,1.92
2022-08-29T18:12:54.600Z,2.08
2022-08-29T18:15:23.681Z,2.40
2022-08-29T18:17:51.396Z,2.35
2022-08-29T18:20:20.024Z,2.10
2022-08-29T18:22:48.531Z,2.38
2022-08-29T18:25:22.618Z,2.30
2022-08-29T18:27:50.481Z,2.33
2022-08-29T18:30:20.681Z,2.00
2022-08-29T18:32:49.959Z,2.40
2022-08-29T18:35:19.681Z,2.58
2022-08-29T18:37:46.671Z,2.47
2022-08-29T18:40:13.764Z,2.53
2022-08-29T18:42:42.887Z,2.30
2022-08-29T18:45:11.088Z,2.38
2022-08-29T18:47:39.898Z,2.28
2022-08-29T18:50:28.048Z,1.95
2022-08-29T18:52:55.748Z,2.30
2022-08-29T18:55:23.953Z,2.15
2022-08-29T18:57:57.862Z,2.40
2022-08-29T19:00:25.252Z,2.60
2022-08-29T19:02:56.974Z,2.20
2022-08-29T19:05:26.744Z,2.30
2022-08-29T19:07:54.487Z,2.10
2022-08-29T19:10:26.267Z,2.20
2022-08-29T19:12:54.598Z,2.42
2022-08-29T19:15:25.985Z,2.40
2022-08-29T19:17:56.583Z,2.63
2022-08-29T19:20:46.561Z,2.85
2022-08-29T19:23:16.282Z,2.53
2022-08-29T19:25:46.248Z,2.42
2022-08-29T19:28:19.771Z,2.85
2022-08-29T19:30:49.525Z,2.78
2022-08-29T19:33:18.402Z,3.05
2022-08-29T19:35:49.595Z,2.40
2022-08-29T19:38:18.041Z,2.78
2022-08-29T19:40:49.070Z,2.58
2022-08-29T19:43:17.705Z,2.45
2022-08-29T19:45:46.350Z,2.65
2022-08-29T19:48:15.019Z,2.90
2022-08-29T19:51:00.367Z,2.72
2022-08-29T19:53:30.814Z,2.60
2022-08-29T19:55:58.957Z,2.50
2022-08-29T19:58:31.939Z,3.00
2022-08-29T20:01:04.088Z,2.88
2022-08-29T20:03:32.290Z,2.72
2022-08-29T20:06:05.710Z,2.60
2022-08-29T20:08:36.253Z,3.03
2022-08-29T20:11:04.479Z,3.13
2022-08-29T20:13:35.727Z,2.65
2022-08-29T20:16:09.602Z,2.55
2022-08-29T20:18:43.583Z,2.42
2022-08-29T20:21:12.506Z,2.67
2022-08-29T20:23:49.943Z,2.97
2022-08-29T20:26:21.237Z,2.83
2022-08-29T20:28:53.676Z,2.42
2022-08-29T20:31:22.213Z,2.65
2022-08-29T20:33:49.735Z,2.60
2022-08-29T20:36:38.754Z,2.92
2022-08-29T20:39:11.143Z,2.85
2022-08-29T20:41:38.869Z,2.60
2022-08-29T20:44:11.156Z,2.63
2022-08-29T20:46:44.228Z,2.70
2022-08-29T20:49:15.570Z,2.70
2022-08-29T20:51:46.190Z,2.83
2022-08-29T20:54:15.375Z,2.67
2022-08-29T20:56:42.526Z,2.78
2022-08-29T20:59:10.557Z,2.70
2022-08-29T21:01:40.514Z,2.67
2022-08-29T21:04:28.071Z,2.80
2022-08-29T21:07:00.189Z,2.97
2022-08-29T21:09:29.035Z,2.90
2022-08-29T21:11:58.932Z,2.70
2022-08-29T21:14:29.377Z,2.58
2022-08-29T21:16:57.337Z,2.50
2022-08-29T21:21:54.875Z,2.80
2022-08-29T21:24:22.675Z,2.90
2022-08-29T21:26:50.226Z,3.25
2022-08-29T21:29:20.148Z,3.00
2022-08-29T21:31:49.513Z,2.70
2022-08-29T21:34:19.763Z,2.80
2022-08-29T21:36:49.492Z,2.42
2022-08-29T21:39:28.779Z,2.63
2022-08-29T21:41:56.711Z,2.70
2022-08-29T21:44:23.814Z,2.80
2022-08-29T21:46:52.754Z,3.00
2022-08-29T21:49:21.557Z,2.47
2022-08-29T21:51:51.008Z,2.50
2022-08-29T21:54:18.243Z,2.75
2022-08-29T21:56:46.923Z,2.50
2022-08-29T21:59:15.285Z,2.97
2022-08-29T22:01:46.053Z,2.67
2022-08-29T22:04:18.877Z,2.70
2022-08-29T22:06:54.584Z,2.72
2022-08-29T22:09:23.313Z,2.20
2022-08-29T22:11:52.883Z,2.92
2022-08-29T22:14:21.763Z,3.03
2022-08-29T22:16:48.591Z,2.58
2022-08-29T22:19:19.079Z,2.90
2022-08-29T22:21:52.422Z,2.35
2022-08-29T22:24:19.376Z,2.60
2022-08-29T22:26:51.219Z,2.80
2022-08-29T22:29:18.083Z,2.53
2022-08-29T22:31:47.556Z,2.60
2022-08-29T22:34:16.297Z,2.65
2022-08-29T22:36:45.903Z,2.60
2022-08-29T22:39:13.392Z,2.72
2022-08-29T22:41:45.455Z,2.50
2022-08-29T22:44:59.898Z,3.05
2022-08-29T22:47:03.322Z,2.28
2022-08-29T22:49:34.611Z,2.63
2022-08-29T22:52:02.210Z,2.60
2022-08-29T22:54:36.130Z,2.40
2022-08-29T22:57:14.755Z,2.42
2022-08-29T22:59:43.463Z,2.50
2022-08-29T23:02:13.800Z,2.40
2022-08-29T23:04:43.722Z,2.50
2022-08-29T23:07:12.126Z,2.55
2022-08-29T23:09:40.690Z,2.78
2022-08-29T23:12:08.658Z,2.55
2022-08-29T23:17:04.947Z,2.47
2022-08-29T23:19:32.238Z,2.55
2022-08-29T23:21:59.385Z,2.67
2022-08-29T23:24:31.685Z,2.90
2022-08-29T23:26:59.568Z,3.10
2022-08-29T23:29:27.161Z,2.70
2022-08-29T23:31:56.725Z,2.83
2022-08-29T23:34:25.923Z,2.92
2022-08-29T23:36:52.715Z,3.15
2022-08-29T23:39:19.612Z,2.67
2022-08-29T23:41:51.085Z,2.30
2022-08-29T23:44:18.023Z,2.95
2022-08-29T23:46:46.205Z,2.97
2022-08-29T23:49:13.247Z,2.75
2022-08-29T23:51:41.143Z,2.95
2022-08-29T23:56:40.483Z,3.30
2022-08-29T23:59:30.755Z,2.50
